Time;durP1;ratioP1;P1;durP2;ratioP2;P2;SDS_P1;SDS_P2;PMS_P1;PMS_P2;Temp;Humidity;BMP_temperature;BMP_pressure;BME280_temperature;BME280_humidity;BME280_pressure;Samples;Min_cycle;Max_cycle;Signal;HPM_P1;HPM_P2
2020/12/28 02:54:45;;;;;;;5.75;3.72;;;16.40;49.90;;;;;;6018299;23;20282;-79
2020/12/28 03:28:53;;;;;;;6.20;3.35;;;16.50;49.90;;;;;;5780275;24;20499;-80
2020/12/28 04:35:39;;;;;;;6.28;3.53;;;16.40;49.60;;;;;;6009381;23;20222;-80
2020/12/28 05:17:05;;;;;;;5.57;3.65;;;16.60;48.60;;;;;;5874811;24;20164;-80
2020/12/28 05:23:24;;;;;;;6.47;3.65;;;16.70;48.70;;;;;;5858774;24;20258;-79
2020/12/28 05:26:47;;;;;;;;;;;;;;;;;;;;;
2020/12/28 05:29:56;;;;;;;4.53;3.20;;;16.70;48.40;;;;;;5857338;24;20174;-80
2020/12/28 06:19:24;;;;;;;6.10;3.70;;;16.80;47.50;;;;;;5859956;24;20247;-80
2020/12/28 06:21:55;;;;;;;5.72;3.60;;;16.90;47.40;;;;;;5857819;24;20194;-81
2020/12/28 06:28:31;;;;;;;5.85;3.55;;;16.80;47.50;;;;;;5857051;24;20638;-80
2020/12/28 06:31:12;;;;;;;4.85;3.85;;;16.80;47.50;;;;;;5886519;24;20161;-81
2020/12/28 06:33:48;;;;;;;4.97;3.97;;;16.90;47.40;;;;;;5869670;24;20291;-81
2020/12/28 06:36:35;;;;;;;5.47;4.03;;;16.90;47.10;;;;;;5876911;24;20161;-82
2020/12/28 06:39:03;;;;;;;4.95;3.63;;;16.90;47.40;;;;;;5932482;24;20156;-82
2020/12/28 06:41:46;;;;;;;4.22;3.45;;;16.90;47.20;;;;;;5998237;23;20199;-82
2020/12/28 06:44:12;;;;;;;4.72;3.85;;;16.90;47.30;;;;;;6122646;23;20133;-81
2020/12/28 06:46:37;;;;;;;5.93;4.07;;;16.80;47.40;;;;;;6072963;23;20152;-82
2020/12/28 06:49:03;;;;;;;5.78;3.97;;;16.80;47.30;;;;;;6072948;23;20172;-81
2020/12/28 06:51:29;;;;;;;4.60;3.50;;;16.80;47.60;;;;;;6097128;23;20157;-81
2020/12/28 06:53:58;;;;;;;4.78;3.72;;;16.80;47.60;;;;;;6074366;23;20168;-82
2020/12/28 06:56:27;;;;;;;5.10;3.90;;;16.80;47.30;;;;;;6121546;23;20122;-81
2020/12/28 06:59:00;;;;;;;5.28;3.80;;;16.90;47.20;;;;;;6119528;23;20133;-81
2020/12/28 07:01:31;;;;;;;5.15;4.00;;;17.00;46.90;;;;;;6095524;23;20469;-82
2020/12/28 07:04:04;;;;;;;5.20;3.88;;;16.90;47.00;;;;;;6095639;23;20149;-81
2020/12/28 07:06:39;;;;;;;5.13;3.75;;;16.90;47.00;;;;;;6091809;23;20584;-80
2020/12/28 07:09:07;;;;;;;5.45;3.88;;;16.90;46.80;;;;;;6118224;23;20140;-83
2020/12/28 07:11:34;;;;;;;5.20;3.80;;;16.90;47.30;;;;;;6093394;23;20157;-80
2020/12/28 07:14:23;;;;;;;4.47;3.67;;;16.90;47.20;;;;;;6090046;23;20157;-82
2020/12/28 07:16:57;;;;;;;6.13;4.18;;;17.00;46.70;;;;;;6141336;23;20187;-82
2020/12/28 07:19:25;;;;;;;5.47;3.80;;;16.90;46.90;;;;;;6070729;23;20220;-82
2020/12/28 07:21:52;;;;;;;4.60;3.67;;;17.00;46.90;;;;;;6145516;23;20172;-82
2020/12/28 07:24:20;;;;;;;5.25;4.10;;;17.00;46.90;;;;;;6072182;23;20207;-82
2020/12/28 07:26:50;;;;;;;5.18;3.67;;;17.00;46.60;;;;;;6096275;23;20203;-82
2020/12/28 07:29:20;;;;;;;4.32;3.40;;;17.00;46.60;;;;;;6069580;23;20159;-82
2020/12/28 07:31:52;;;;;;;4.90;3.75;;;17.00;46.60;;;;;;6094741;23;20223;-81
2020/12/28 07:34:19;;;;;;;5.40;4.03;;;17.00;46.70;;;;;;6073916;23;20151;-83
2020/12/28 07:36:54;;;;;;;5.40;3.70;;;17.10;46.80;;;;;;6072058;23;20152;-83
2020/12/28 07:39:23;;;;;;;5.20;3.63;;;17.10;46.60;;;;;;6095611;23;20208;-83
2020/12/28 07:41:59;;;;;;;5.25;3.92;;;17.10;46.50;;;;;;6116139;23;20244;-84
2020/12/28 07:44:27;;;;;;;6.68;4.18;;;17.10;46.50;;;;;;6068646;23;20217;-82
2020/12/28 07:47:03;;;;;;;4.82;3.72;;;17.10;46.60;;;;;;6068334;23;20148;-83
2020/12/28 07:49:31;;;;;;;4.70;3.67;;;17.10;46.50;;;;;;6116264;23;20161;-84
2020/12/28 07:52:24;;;;;;;4.88;3.80;;;17.10;46.50;;;;;;6065635;23;20160;-82
2020/12/28 07:55:01;;;;;;;5.82;4.10;;;17.10;46.50;;;;;;6111541;23;20145;-84
2020/12/28 07:58:32;;;;;;;6.75;4.10;;;17.20;46.40;;;;;;6111450;23;20160;-83
2020/12/28 08:01:20;;;;;;;5.53;3.97;;;17.20;46.50;;;;;;6114037;23;20176;-84
2020/12/28 08:04:10;;;;;;;6.05;4.07;;;17.10;46.60;;;;;;6095108;23;20160;-84
2020/12/28 08:06:59;;;;;;;5.90;3.88;;;17.10;46.60;;;;;;6091480;23;20149;-83
2020/12/28 08:09:33;;;;;;;5.93;3.95;;;17.10;46.60;;;;;;6092498;23;20165;-83
2020/12/28 08:12:01;;;;;;;6.30;4.18;;;17.10;46.40;;;;;;6092306;23;20166;-83
2020/12/28 08:14:31;;;;;;;4.03;3.63;;;17.10;46.60;;;;;;6092892;23;20232;-83
2020/12/28 08:17:28;;;;;;;4.95;3.85;;;17.10;46.70;;;;;;6092570;23;20225;-82
2020/12/28 08:20:08;;;;;;;5.03;4.03;;;17.10;46.30;;;;;;6114772;23;20221;-84
2020/12/28 08:22:50;;;;;;;5.47;3.85;;;17.20;46.40;;;;;;6089111;23;20169;-83
2020/12/28 08:25:29;;;;;;;4.63;4.03;;;17.20;46.40;;;;;;6114682;23;20185;-83
2020/12/28 08:28:02;;;;;;;5.60;4.03;;;17.20;46.40;;;;;;6116039;23;20136;-83
2020/12/28 08:30:32;;;;;;;6.07;3.90;;;17.20;46.40;;;;;;6089937;23;20137;-83
2020/12/28 08:33:09;;;;;;;4.75;3.83;;;17.20;46.20;;;;;;6114035;23;20133;-84
2020/12/28 08:35:49;;;;;;;5.07;3.75;;;17.20;46.40;;;;;;6090324;23;20145;-82
2020/12/28 08:38:32;;;;;;;4.97;3.92;;;17.20;46.40;;;;;;6086818;23;20137;-82
2020/12/28 08:41:01;;;;;;;6.40;4.45;;;17.20;46.40;;;;;;6087226;23;20206;-82
2020/12/28 08:43:27;;;;;;;6.35;3.97;;;17.20;45.90;;;;;;6113020;23;20129;-83
2020/12/28 08:46:06;;;;;;;5.30;4.00;;;17.30;46.10;;;;;;6087504;23;20484;-82
2020/12/28 08:48:35;;;;;;;5.55;4.13;;;17.30;45.70;;;;;;6087384;23;20149;-82
2020/12/28 08:51:04;;;;;;;5.22;4.05;;;17.20;46.10;;;;;;6087081;23;20216;-82
2020/12/28 08:53:30;;;;;;;6.00;4.00;;;17.20;46.10;;;;;;6111326;23;20129;-83
2020/12/28 08:56:12;;;;;;;5.60;4.25;;;17.20;46.40;;;;;;6112493;23;20157;-83
2020/12/28 08:58:38;;;;;;;5.07;4.03;;;17.20;46.20;;;;;;6111629;23;20148;-83
2020/12/28 09:01:15;;;;;;;5.28;4.18;;;17.20;46.00;;;;;;6086672;23;20180;-84
2020/12/28 09:03:41;;;;;;;5.32;4.15;;;17.20;46.00;;;;;;6111109;23;20144;-84
2020/12/28 09:06:08;;;;;;;5.20;3.80;;;17.30;46.00;;;;;;6086285;23;20156;-83
2020/12/28 09:08:34;;;;;;;5.20;4.28;;;17.30;45.90;;;;;;6087150;23;20129;-82
2020/12/28 09:11:05;;;;;;;5.15;4.03;;;17.30;45.90;;;;;;6087083;23;20137;-82
2020/12/28 09:13:36;;;;;;;5.35;4.28;;;17.30;45.90;;;;;;6088477;23;20152;-83
2020/12/28 09:16:11;;;;;;;5.38;4.38;;;17.30;46.00;;;;;;6063867;23;20177;-82
2020/12/28 09:18:38;;;;;;;4.95;3.90;;;17.20;46.00;;;;;;6052707;23;20462;-81
2020/12/28 09:21:25;;;;;;;6.47;4.03;;;17.20;46.10;;;;;;6084861;23;20557;-81
2020/12/28 09:23:57;;;;;;;5.13;3.75;;;17.20;46.00;;;;;;6088930;23;20160;-82
2020/12/28 09:26:29;;;;;;;4.32;3.70;;;17.30;45.90;;;;;;6085339;23;20149;-81
2020/12/28 09:28:59;;;;;;;5.25;4.05;;;17.30;45.90;;;;;;6085372;23;20153;-81
2020/12/28 09:31:27;;;;;;;4.85;4.00;;;17.30;45.90;;;;;;6062856;23;20153;-82
2020/12/28 09:33:53;;;;;;;7.03;4.20;;;17.30;45.80;;;;;;6109508;23;20153;-82
2020/12/28 09:37:04;;;;;;;6.88;4.10;;;17.30;45.80;;;;;;6084207;23;20148;-80
2020/12/28 09:39:45;;;;;;;5.93;4.32;;;17.40;46.00;;;;;;6029711;23;20202;-80
2020/12/28 09:42:24;;;;;;;5.78;4.30;;;17.40;45.80;;;;;;6005336;23;20622;-80
2020/12/28 09:45:00;;;;;;;7.00;4.22;;;17.40;45.80;;;;;;6032861;23;20172;-81
2020/12/28 09:47:27;;;;;;;4.90;3.85;;;17.30;45.90;;;;;;6032632;23;20158;-81
2020/12/28 09:49:52;;;;;;;6.50;4.15;;;17.20;46.10;;;;;;6050138;23;20154;-82
2020/12/28 09:52:25;;;;;;;5.43;4.00;;;17.20;46.10;;;;;;5983113;23;20146;-81
2020/12/28 09:55:00;;;;;;;6.30;3.95;;;17.20;46.30;;;;;;6002755;23;20205;-81
2020/12/28 09:57:26;;;;;;;5.78;4.45;;;17.20;47.00;;;;;;5979910;23;20516;-82
2020/12/28 09:59:52;;;;;;;4.30;3.88;;;17.20;46.10;;;;;;6001524;23;20156;-81
2020/12/28 10:02:17;;;;;;;5.95;4.13;;;17.30;46.10;;;;;;6027305;23;20173;-83
2020/12/28 10:04:44;;;;;;;5.65;4.10;;;17.30;45.90;;;;;;6002471;23;20135;-82
2020/12/28 10:07:16;;;;;;;5.50;4.05;;;17.30;46.00;;;;;;6003848;23;20134;-81
2020/12/28 10:09:43;;;;;;;5.15;4.45;;;17.40;46.00;;;;;;6002913;23;20150;-82
2020/12/28 10:12:09;;;;;;;5.60;4.22;;;17.30;46.10;;;;;;5981297;23;20331;-82
2020/12/28 10:14:34;;;;;;;6.05;4.25;;;17.30;46.00;;;;;;5978433;23;20149;-82
2020/12/28 10:17:03;;;;;;;5.28;4.30;;;17.30;46.10;;;;;;6061890;23;20234;-81
2020/12/28 10:19:29;;;;;;;5.22;4.15;;;17.30;46.10;;;;;;6111912;23;20141;-83
2020/12/28 10:22:00;;;;;;;5.55;4.25;;;17.30;46.00;;;;;;6111379;23;20189;-83
2020/12/28 10:24:26;;;;;;;5.35;4.30;;;17.30;45.90;;;;;;6086343;23;20141;-83
2020/12/28 10:26:52;;;;;;;5.32;4.32;;;17.40;45.90;;;;;;6109912;23;20140;-82
2020/12/28 10:29:18;;;;;;;4.80;4.10;;;17.40;45.90;;;;;;6109594;23;20133;-82
2020/12/28 10:31:46;;;;;;;6.43;4.30;;;17.30;45.90;;;;;;6107480;23;20171;-81
2020/12/28 10:34:12;;;;;;;5.88;4.45;;;17.30;46.00;;;;;;6082116;23;20145;-81
2020/12/28 10:36:38;;;;;;;4.70;4.18;;;17.30;46.00;;;;;;6084886;23;20157;-82
2020/12/28 10:39:04;;;;;;;4.72;4.10;;;17.30;46.00;;;;;;6110356;23;20731;-82
2020/12/28 10:41:34;;;;;;;6.82;4.72;;;17.30;46.00;;;;;;6062755;23;20176;-82
2020/12/28 10:44:00;;;;;;;5.70;4.28;;;17.30;46.00;;;;;;6063664;23;20574;-82
2020/12/28 10:46:26;;;;;;;5.63;4.38;;;17.30;46.00;;;;;;6063142;23;20133;-81
2020/12/28 10:48:56;;;;;;;5.72;4.25;;;17.30;46.00;;;;;;6062314;23;20188;-81
2020/12/28 10:51:22;;;;;;;5.07;4.30;;;17.30;46.00;;;;;;6059044;23;20172;-82
2020/12/28 10:53:48;;;;;;;5.18;4.25;;;17.30;46.00;;;;;;6057099;23;20573;-82
2020/12/28 10:56:22;;;;;;;6.25;4.20;;;17.30;46.00;;;;;;6055857;23;20141;-83
2020/12/28 10:58:57;;;;;;;6.15;4.45;;;17.30;46.00;;;;;;6057463;23;20137;-82
2020/12/28 11:01:27;;;;;;;5.20;4.18;;;17.30;46.10;;;;;;6059362;23;20179;-81
2020/12/28 11:03:54;;;;;;;4.95;4.22;;;17.30;46.10;;;;;;6059625;23;20184;-82
2020/12/28 11:06:22;;;;;;;4.90;4.00;;;17.30;46.10;;;;;;6060014;23;20224;-82
2020/12/28 11:08:49;;;;;;;5.25;4.32;;;17.30;46.10;;;;;;6086025;23;20136;-81
2020/12/28 11:11:18;;;;;;;5.60;4.63;;;17.30;46.00;;;;;;6110707;23;20133;-82
2020/12/28 11:13:46;;;;;;;6.50;5.00;;;17.30;46.00;;;;;;6086461;23;20141;-83
2020/12/28 11:16:12;;;;;;;6.00;4.60;;;17.30;46.00;;;;;;6063245;23;20145;-82
2020/12/28 11:18:41;;;;;;;6.22;4.20;;;17.30;46.00;;;;;;6086777;23;20271;-82
2020/12/28 11:21:07;;;;;;;6.05;4.75;;;17.30;46.00;;;;;;6086485;23;20171;-81
2020/12/28 11:26:29;;;;;;;6.95;4.55;;;17.30;46.00;;;;;;6088804;23;20196;-81
2020/12/28 11:28:57;;;;;;;5.28;4.28;;;17.30;46.00;;;;;;6087863;23;20133;-83
2020/12/28 11:31:26;;;;;;;8.95;4.68;;;17.20;46.10;;;;;;6063867;23;20157;-83
2020/12/28 11:33:53;;;;;;;6.57;4.43;;;17.20;46.20;;;;;;6063092;23;20220;-83
2020/12/28 11:36:28;;;;;;;7.82;4.22;;;17.30;46.10;;;;;;6063211;23;20169;-83
2020/12/28 11:38:53;;;;;;;10.15;4.53;;;17.30;46.00;;;;;;6062663;23;20627;-83
2020/12/28 11:41:19;;;;;;;9.60;4.25;;;17.30;46.00;;;;;;6064178;23;20184;-83
2020/12/28 11:43:52;;;;;;;11.07;4.75;;;17.30;46.00;;;;;;6063160;23;20153;-82
2020/12/28 11:46:19;;;;;;;11.25;4.65;;;17.30;45.90;;;;;;6063574;23;20137;-83
2020/12/28 11:48:49;;;;;;;12.07;4.70;;;17.40;45.90;;;;;;6062649;23;20153;-82
2020/12/28 11:51:19;;;;;;;9.30;4.95;;;17.40;45.90;;;;;;6086651;23;20138;-83
2020/12/28 11:53:47;;;;;;;16.20;4.60;;;17.30;46.00;;;;;;6087282;23;20141;-82
2020/12/28 11:56:19;;;;;;;20.67;5.07;;;17.40;45.80;;;;;;6086686;23;20173;-82
2020/12/28 11:58:46;;;;;;;10.95;5.70;;;17.40;45.80;;;;;;6088315;23;20134;-82
2020/12/28 12:01:16;;;;;;;9.80;4.43;;;17.30;45.80;;;;;;6087071;23;20171;-82
2020/12/28 12:03:47;;;;;;;11.32;4.70;;;17.30;45.90;;;;;;6039485;23;20144;-81
2020/12/28 12:06:27;;;;;;;8.88;4.60;;;17.30;45.90;;;;;;6112202;23;20136;-82
2020/12/28 12:11:48;;;;;;;8.15;4.60;;;17.30;46.00;;;;;;6089634;23;20188;-81
2020/12/28 12:14:34;;;;;;;12.00;4.50;;;17.30;45.80;;;;;;6063058;23;20164;-81
2020/12/28 12:17:04;;;;;;;9.35;4.95;;;17.40;45.70;;;;;;6082116;23;20149;-81
2020/12/28 12:19:31;;;;;;;7.32;4.90;;;17.40;45.80;;;;;;6062883;23;20149;-82
2020/12/28 12:22:01;;;;;;;7.78;4.47;;;17.30;45.80;;;;;;6086326;23;20311;-82
2020/12/28 12:25:08;;;;;;;6.82;4.20;;;17.40;45.70;;;;;;6086246;23;20132;-82
2020/12/28 12:27:46;;;;;;;7.65;4.90;;;17.40;45.80;;;;;;6085081;23;20141;-81
2020/12/28 12:30:16;;;;;;;6.78;4.85;;;17.30;46.00;;;;;;6087656;23;20464;-82
2020/12/28 12:32:51;;;;;;;8.00;4.93;;;17.30;46.00;;;;;;6113011;23;20141;-82
2020/12/28 12:35:40;;;;;;;7.70;4.57;;;17.40;45.80;;;;;;6062393;23;20591;-82
2020/12/28 12:38:17;;;;;;;7.63;4.60;;;17.30;46.10;;;;;;6085666;23;20569;-82
2020/12/28 12:41:09;;;;;;;8.30;4.60;;;17.40;46.10;;;;;;6112460;23;20239;-83
2020/12/28 12:43:39;;;;;;;8.90;4.45;;;17.30;46.40;;;;;;6113060;23;20172;-83
2020/12/28 12:46:22;;;;;;;7.63;4.90;;;17.30;46.70;;;;;;6062412;23;20144;-82
2020/12/28 12:48:53;;;;;;;7.30;4.70;;;17.20;46.60;;;;;;6062558;23;20229;-81
2020/12/28 12:51:42;;;;;;;7.70;4.82;;;17.20;46.20;;;;;;6110594;23;20296;-82
2020/12/28 12:54:53;;;;;;;7.07;4.45;;;17.20;46.60;;;;;;6111119;23;20157;-83
2020/12/28 12:57:26;;;;;;;6.38;4.45;;;17.30;46.50;;;;;;6111101;23;20133;-82
2020/12/28 13:00:05;;;;;;;7.28;5.15;;;17.30;46.30;;;;;;6061993;23;20198;-82
2020/12/28 13:02:43;;;;;;;5.68;4.50;;;17.20;46.30;;;;;;6088600;23;20200;-83
2020/12/28 13:05:13;;;;;;;7.57;4.80;;;17.20;46.40;;;;;;6085094;23;20155;-83
2020/12/28 13:07:43;;;;;;;7.43;4.78;;;17.30;46.30;;;;;;6060878;23;20153;-82
2020/12/28 13:10:10;;;;;;;5.53;4.68;;;17.30;46.40;;;;;;6062430;23;20217;-83
2020/12/28 13:12:46;;;;;;;8.43;4.93;;;17.30;46.30;;;;;;6037784;23;20159;-82
2020/12/28 13:15:18;;;;;;;8.32;4.47;;;17.30;46.30;;;;;;6063163;23;20144;-82
2020/12/28 13:18:11;;;;;;;6.75;4.75;;;17.30;46.20;;;;;;6087050;23;20140;-83
2020/12/28 13:20:56;;;;;;;5.40;4.18;;;17.30;46.00;;;;;;6061231;23;20161;-83
2020/12/28 13:23:23;;;;;;;6.82;4.40;;;17.30;46.00;;;;;;6085554;23;20213;-83
2020/12/28 13:25:53;;;;;;;6.95;4.55;;;17.40;46.00;;;;;;6062421;23;20156;-83
2020/12/28 13:28:24;;;;;;;8.20;4.85;;;17.30;46.00;;;;;;6062266;23;20165;-84
2020/12/28 13:30:54;;;;;;;6.07;4.38;;;17.40;45.90;;;;;;6061759;23;20152;-83
2020/12/28 13:33:22;;;;;;;7.75;4.40;;;17.40;45.90;;;;;;6059854;23;20152;-82
2020/12/28 13:35:50;;;;;;;6.03;4.30;;;17.40;45.90;;;;;;6034298;23;20176;-81
2020/12/28 13:38:16;;;;;;;8.00;4.45;;;17.50;45.80;;;;;;6081585;23;20153;-81
2020/12/28 13:40:42;;;;;;;5.70;4.57;;;17.50;45.80;;;;;;6080292;23;20187;-81
2020/12/28 13:43:09;;;;;;;12.40;4.82;;;17.50;46.60;;;;;;6109922;23;20679;-82
2020/12/28 13:45:34;;;;;;;6.60;4.65;;;17.50;45.90;;;;;;6111381;23;20154;-81
2020/12/28 13:48:09;;;;;;;7.88;4.47;;;17.40;46.50;;;;;;6087671;23;20540;-83
2020/12/28 13:50:35;;;;;;;9.20;4.53;;;17.40;45.80;;;;;;6111788;23;20198;-83
2020/12/28 13:53:00;;;;;;;6.80;4.28;;;17.40;45.80;;;;;;6087441;23;20136;-81
2020/12/28 13:55:26;;;;;;;8.20;4.47;;;17.50;45.80;;;;;;6088124;23;20431;-82
2020/12/28 13:57:52;;;;;;;11.95;4.90;;;17.50;45.80;;;;;;6111853;23;20132;-81
2020/12/28 14:00:19;;;;;;;6.38;4.18;;;17.50;45.80;;;;;;6087247;23;20147;-83
2020/12/28 14:02:54;;;;;;;6.72;4.85;;;17.50;45.80;;;;;;6136240;23;20167;-81
2020/12/28 14:05:20;;;;;;;7.57;4.28;;;17.40;45.90;;;;;;6136396;23;20143;-83
2020/12/28 14:07:47;;;;;;;7.10;4.90;;;17.40;45.80;;;;;;6108797;23;20137;-81
2020/12/28 14:10:23;;;;;;;8.55;4.43;;;17.40;45.80;;;;;;6086105;23;20461;-81
2020/12/28 14:13:10;;;;;;;12.38;4.65;;;17.40;45.90;;;;;;6111930;23;20151;-81
2020/12/28 14:15:36;;;;;;;12.25;4.55;;;17.50;45.90;;;;;;6086239;23;20227;-81
2020/12/28 14:18:06;;;;;;;8.90;4.43;;;17.30;46.00;;;;;;6111582;23;20467;-81
2020/12/28 14:20:37;;;;;;;10.95;4.60;;;17.40;45.90;;;;;;6112601;23;20154;-82
2020/12/28 14:23:11;;;;;;;9.00;4.88;;;17.40;45.90;;;;;;6088438;23;20159;-81
2020/12/28 14:25:44;;;;;;;9.10;5.03;;;17.40;45.70;;;;;;6112570;23;20135;-82
2020/12/28 14:28:19;;;;;;;8.63;4.80;;;17.40;45.90;;;;;;6089790;23;20148;-81
2020/12/28 14:30:47;;;;;;;7.95;4.60;;;17.40;45.90;;;;;;6139353;23;20572;-81
2020/12/28 14:33:21;;;;;;;8.60;4.97;;;17.50;45.70;;;;;;6139062;23;20164;-80
2020/12/28 14:35:48;;;;;;;8.13;4.72;;;17.50;45.70;;;;;;6091847;23;20143;-81
2020/12/28 14:38:23;;;;;;;10.57;4.63;;;17.40;46.50;;;;;;6114853;23;20136;-80
2020/12/28 14:40:52;;;;;;;10.75;5.05;;;17.40;46.00;;;;;;6087723;23;20527;-82
2020/12/28 14:43:19;;;;;;;9.48;4.85;;;17.40;46.00;;;;;;6114953;23;20591;-82
2020/12/28 14:45:46;;;;;;;7.25;4.47;;;17.40;46.00;;;;;;6139836;23;20139;-82
2020/12/28 14:48:20;;;;;;;8.40;5.05;;;17.40;45.90;;;;;;6090004;23;20585;-82
2020/12/28 14:50:48;;;;;;;8.25;4.65;;;17.30;46.10;;;;;;6090405;23;20156;-82
2020/12/28 14:53:17;;;;;;;8.98;4.40;;;17.30;46.00;;;;;;6088698;23;20149;-82
2020/12/28 14:55:43;;;;;;;6.88;4.18;;;17.40;46.00;;;;;;6112631;23;20167;-83
2020/12/28 14:58:12;;;;;;;7.22;4.60;;;17.40;45.80;;;;;;6089731;23;20167;-82
2020/12/28 15:00:48;;;;;;;7.78;4.70;;;17.40;45.90;;;;;;6089776;23;20152;-80
2020/12/28 15:03:19;;;;;;;7.40;4.75;;;17.40;45.80;;;;;;6111432;23;20131;-80
2020/12/28 15:05:49;;;;;;;6.38;4.70;;;17.50;45.80;;;;;;6089428;23;20158;-81
2020/12/28 15:08:19;;;;;;;7.22;4.65;;;17.50;45.70;;;;;;6066744;23;20155;-81
2020/12/28 15:10:50;;;;;;;6.57;4.80;;;17.40;45.70;;;;;;6091158;23;20534;-81
2020/12/28 15:13:16;;;;;;;12.45;4.85;;;17.50;45.50;;;;;;6114343;23;20132;-82
2020/12/28 15:15:50;;;;;;;6.65;4.88;;;17.50;45.60;;;;;;6090180;23;20152;-82
2020/12/28 15:18:23;;;;;;;7.95;4.88;;;17.50;45.60;;;;;;6114185;23;20160;-82
2020/12/28 15:20:54;;;;;;;6.30;4.68;;;17.50;45.50;;;;;;6114601;23;20212;-82
2020/12/28 15:23:22;;;;;;;5.65;4.85;;;17.50;45.50;;;;;;6114464;23;20136;-82
2020/12/28 15:25:57;;;;;;;7.85;5.10;;;17.50;45.60;;;;;;6140363;23;20136;-82
2020/12/28 15:28:25;;;;;;;9.68;4.75;;;17.50;45.50;;;;;;6114577;23;20144;-82
2020/12/28 15:30:53;;;;;;;6.32;4.28;;;17.40;45.70;;;;;;6089898;23;20148;-82
2020/12/28 15:33:31;;;;;;;8.45;4.75;;;17.40;45.70;;;;;;6114747;23;20140;-82
2020/12/28 15:36:00;;;;;;;7.65;4.45;;;17.50;45.50;;;;;;6042184;23;20199;-82
2020/12/28 15:38:30;;;;;;;6.50;4.78;;;17.60;45.30;;;;;;6114289;23;20212;-82
2020/12/28 15:41:00;;;;;;;7.07;4.55;;;17.60;45.20;;;;;;6114395;23;20187;-82
2020/12/28 15:43:39;;;;;;;7.18;4.82;;;17.60;45.20;;;;;;6113622;23;20155;-82
2020/12/28 15:46:06;;;;;;;5.63;4.43;;;17.50;45.50;;;;;;6113956;23;20598;-83
2020/12/28 15:48:39;;;;;;;5.25;4.28;;;17.50;45.50;;;;;;6089873;23;20175;-82
2020/12/28 15:51:11;;;;;;;5.95;4.60;;;17.50;45.50;;;;;;6089437;23;20156;-82
2020/12/28 15:53:43;;;;;;;6.93;5.05;;;17.50;45.50;;;;;;6089770;23;20152;-81
2020/12/28 15:56:16;;;;;;;5.72;4.68;;;17.50;46.20;;;;;;6089870;23;20220;-82
2020/12/28 15:58:43;;;;;;;7.30;4.45;;;17.50;45.50;;;;;;6112886;23;20140;-81
2020/12/28 16:01:15;;;;;;;6.50;4.50;;;17.40;45.60;;;;;;6089304;23;20171;-82
2020/12/28 16:03:43;;;;;;;7.68;4.53;;;17.40;45.60;;;;;;6113738;23;20136;-82
2020/12/28 16:06:14;;;;;;;6.22;4.63;;;17.40;45.60;;;;;;6089827;23;20144;-82
2020/12/28 16:08:43;;;;;;;6.53;4.90;;;17.50;45.40;;;;;;6140329;23;20147;-82
2020/12/28 16:11:10;;;;;;;5.60;4.80;;;17.50;45.50;;;;;;6089330;23;20623;-81
2020/12/28 16:13:37;;;;;;;6.43;4.75;;;17.40;45.50;;;;;;6113450;23;20152;-82
2020/12/28 16:16:10;;;;;;;5.80;4.68;;;17.40;45.70;;;;;;6113161;23;20137;-82
2020/12/28 16:18:45;;;;;;;6.40;4.70;;;17.40;45.70;;;;;;6114597;23;20651;-82
2020/12/28 16:21:15;;;;;;;8.15;4.70;;;17.40;45.70;;;;;;6139582;23;20163;-82
2020/12/28 16:23:45;;;;;;;6.03;4.70;;;17.40;45.60;;;;;;6089988;23;20167;-83
2020/12/28 16:26:15;;;;;;;6.07;4.65;;;17.40;45.70;;;;;;6089455;23;20199;-82
2020/12/28 16:28:42;;;;;;;6.82;4.72;;;17.40;45.60;;;;;;6089533;23;20151;-82
2020/12/28 16:31:13;;;;;;;6.18;4.20;;;17.30;45.80;;;;;;6114072;23;20136;-82
2020/12/28 16:33:49;;;;;;;5.90;4.82;;;17.30;45.80;;;;;;6114853;23;20600;-82
2020/12/28 16:36:23;;;;;;;6.68;4.40;;;17.30;45.70;;;;;;6113853;23;20546;-82
2020/12/28 16:38:52;;;;;;;5.43;4.45;;;17.40;45.60;;;;;;6113069;23;20164;-82
2020/12/28 16:41:20;;;;;;;5.70;4.45;;;17.40;45.50;;;;;;6084378;23;20478;-82
2020/12/28 16:43:49;;;;;;;6.03;4.30;;;17.40;45.60;;;;;;6084348;23;20145;-82
2020/12/28 16:46:19;;;;;;;5.13;4.07;;;17.40;45.40;;;;;;6083748;23;20129;-82
2020/12/28 16:48:46;;;;;;;5.88;4.60;;;17.40;45.40;;;;;;6084544;23;20129;-81
2020/12/28 16:51:14;;;;;;;7.25;4.85;;;17.40;45.50;;;;;;6084597;23;20133;-81
2020/12/28 16:53:56;;;;;;;6.22;4.82;;;17.40;45.70;;;;;;6083526;23;20592;-82
2020/12/28 16:56:34;;;;;;;5.78;4.30;;;17.40;45.70;;;;;;6083685;23;20137;-82
2020/12/28 16:59:07;;;;;;;6.50;5.20;;;17.30;45.90;;;;;;6084315;23;20208;-82
2020/12/28 17:01:34;;;;;;;5.95;4.60;;;17.30;45.70;;;;;;6084388;23;20175;-82
2020/12/28 17:04:05;;;;;;;5.78;4.28;;;17.30;45.70;;;;;;6084383;23;20129;-82
2020/12/28 17:06:35;;;;;;;4.72;4.15;;;17.30;45.70;;;;;;6060374;23;20232;-82
2020/12/28 17:09:09;;;;;;;5.60;4.45;;;17.30;45.80;;;;;;6083947;23;20175;-82
2020/12/28 17:11:51;;;;;;;5.38;4.45;;;17.30;45.70;;;;;;6060468;23;20145;-82
2020/12/28 17:14:22;;;;;;;5.45;4.20;;;17.30;46.40;;;;;;6061627;23;20152;-82
2020/12/28 17:16:53;;;;;;;7.60;4.80;;;17.30;45.70;;;;;;6061112;23;20227;-83
2020/12/28 17:19:28;;;;;;;5.78;4.55;;;17.30;45.70;;;;;;6037479;23;20639;-81
2020/12/28 17:22:06;;;;;;;5.15;4.40;;;17.40;45.60;;;;;;6084259;23;20161;-81
2020/12/28 17:24:39;;;;;;;4.78;4.13;;;17.30;45.70;;;;;;6084705;23;20193;-82
2020/12/28 17:27:13;;;;;;;5.40;4.40;;;17.40;45.60;;;;;;6060345;23;20199;-82
2020/12/28 17:29:42;;;;;;;5.55;4.53;;;17.40;45.50;;;;;;6109951;23;20141;-81
2020/12/28 17:32:12;;;;;;;4.80;4.25;;;17.40;45.40;;;;;;6060179;23;20171;-82
2020/12/28 17:34:48;;;;;;;5.82;4.60;;;17.40;45.50;;;;;;6084067;23;20172;-82
2020/12/28 17:37:34;;;;;;;5.25;4.50;;;17.40;45.60;;;;;;6083878;23;20225;-82
2020/12/28 17:40:05;;;;;;;5.03;4.10;;;17.30;45.60;;;;;;6093809;23;20253;-81
2020/12/28 17:42:46;;;;;;;5.32;4.13;;;17.30;45.60;;;;;;6064909;23;20195;-82
2020/12/28 17:45:19;;;;;;;5.72;4.53;;;17.30;45.60;;;;;;6112852;23;20136;-82
2020/12/28 17:47:55;;;;;;;6.13;4.80;;;17.40;45.60;;;;;;6088499;23;20207;-82
2020/12/28 17:50:28;;;;;;;6.60;4.55;;;17.30;45.80;;;;;;6113471;23;20138;-81
2020/12/28 17:52:56;;;;;;;5.10;4.43;;;17.30;45.70;;;;;;6089055;23;20576;-82
2020/12/28 17:55:34;;;;;;;6.03;4.50;;;17.30;45.60;;;;;;6113023;23;20188;-82
2020/12/28 17:58:08;;;;;;;5.55;4.20;;;17.30;45.60;;;;;;6088332;23;20227;-82
2020/12/28 18:00:38;;;;;;;7.40;4.80;;;17.30;45.60;;;;;;6111638;23;20171;-81
2020/12/28 18:03:17;;;;;;;5.15;4.45;;;17.30;45.70;;;;;;6111732;23;20572;-81
2020/12/28 18:05:59;;;;;;;6.15;4.53;;;17.30;45.70;;;;;;6138282;23;20132;-82
2020/12/28 18:08:31;;;;;;;6.25;4.93;;;17.20;45.80;;;;;;6112097;23;20165;-82
2020/12/28 18:11:00;;;;;;;6.07;4.30;;;17.20;45.90;;;;;;6086871;23;20151;-82
2020/12/28 18:13:41;;;;;;;5.68;4.65;;;17.30;45.80;;;;;;6088438;23;20140;-82
2020/12/28 18:16:11;;;;;;;5.25;4.20;;;17.20;45.80;;;;;;6089277;23;20148;-83
2020/12/28 18:18:40;;;;;;;5.30;4.40;;;17.20;45.80;;;;;;6088731;23;20599;-82
2020/12/28 18:21:18;;;;;;;5.25;4.38;;;17.30;45.70;;;;;;6113130;23;20175;-82
2020/12/28 18:23:46;;;;;;;6.63;4.55;;;17.30;45.70;;;;;;6089820;23;20151;-82
2020/12/28 18:26:14;;;;;;;6.40;4.22;;;17.30;45.60;;;;;;6112771;23;20148;-82
2020/12/28 18:28:47;;;;;;;5.70;4.30;;;17.30;45.60;;;;;;6089472;23;20141;-82
2020/12/28 18:31:26;;;;;;;5.05;4.03;;;17.30;45.70;;;;;;6089151;23;20235;-82
2020/12/28 18:33:56;;;;;;;6.18;5.00;;;17.30;45.70;;;;;;6089617;23;20148;-82
2020/12/28 18:36:26;;;;;;;6.18;4.70;;;17.20;45.80;;;;;;6112872;23;20243;-81
2020/12/28 18:38:56;;;;;;;6.10;4.25;;;17.20;46.00;;;;;;6090662;23;20152;-82
2020/12/28 18:41:35;;;;;;;6.15;5.00;;;17.20;45.90;;;;;;6091512;23;20200;-82
2020/12/28 18:44:13;;;;;;;5.90;4.55;;;17.20;45.80;;;;;;6142057;23;20140;-82
2020/12/28 18:46:40;;;;;;;5.93;4.55;;;17.20;45.80;;;;;;6116389;23;20151;-82
2020/12/28 18:49:28;;;;;;;5.18;4.35;;;17.20;45.90;;;;;;6091183;23;20144;-82
2020/12/28 18:52:02;;;;;;;5.35;4.35;;;17.20;46.00;;;;;;6118298;23;20242;-82
2020/12/28 18:54:50;;;;;;;6.38;4.53;;;17.30;45.80;;;;;;6116074;23;20174;-82
2020/12/28 18:57:20;;;;;;;6.05;4.80;;;17.30;45.80;;;;;;6114568;23;20249;-82
2020/12/28 18:59:50;;;;;;;6.03;4.00;;;17.20;45.90;;;;;;6090819;23;20155;-82
2020/12/28 19:02:21;;;;;;;4.95;3.92;;;17.20;45.90;;;;;;6090492;23;20172;-82
2020/12/28 19:04:48;;;;;;;5.15;4.32;;;17.20;45.90;;;;;;6115300;23;20133;-82
2020/12/28 19:07:19;;;;;;;5.18;4.25;;;17.20;45.80;;;;;;6091103;23;20171;-82
2020/12/28 19:09:49;;;;;;;5.47;4.30;;;17.20;45.80;;;;;;6067766;23;20141;-82
2020/12/28 19:12:16;;;;;;;5.40;4.40;;;17.20;45.90;;;;;;6140565;23;20193;-82
2020/12/28 19:14:43;;;;;;;5.35;4.40;;;17.10;46.00;;;;;;6090417;23;20151;-82
2020/12/28 19:17:13;;;;;;;5.30;4.25;;;17.20;46.00;;;;;;6114869;23;20468;-82
2020/12/28 19:19:43;;;;;;;6.35;4.40;;;17.20;46.00;;;;;;6114996;23;20583;-82
2020/12/28 19:22:10;;;;;;;5.80;4.30;;;17.30;45.90;;;;;;6091023;23;20205;-82
2020/12/28 19:24:41;;;;;;;4.97;4.35;;;17.10;46.00;;;;;;6114333;23;20152;-82